sensor_id;sensor_type;location;lat;lon;timestamp;P1;durP1;ratioP1;P2;durP2;ratioP2
16890;SDS011;8562;52.246;20.966;2022-08-19T00:00:24;7.47;;;6.20;;
16890;SDS011;8562;52.246;20.966;2022-08-19T00:02:50;10.30;;;5.83;;
16890;SDS011;8562;52.246;20.966;2022-08-19T00:05:16;8.47;;;5.93;;
16890;SDS011;8562;52.246;20.966;2022-08-19T00:07:43;7.10;;;5.73;;
16890;SDS011;8562;52.246;20.966;2022-08-19T00:10:10;7.03;;;5.03;;
16890;SDS011;8562;52.246;20.966;2022-08-19T00:12:37;10.77;;;5.80;;
16890;SDS011;8562;52.246;20.966;2022-08-19T00:15:11;7.03;;;5.97;;
16890;SDS011;8562;52.246;20.966;2022-08-19T00:17:41;9.97;;;6.77;;
16890;SDS011;8562;52.246;20.966;2022-08-19T00:20:08;8.97;;;6.10;;
16890;SDS011;8562;52.246;20.966;2022-08-19T00:22:36;7.37;;;6.23;;
16890;SDS011;8562;52.246;20.966;2022-08-19T00:25:03;10.80;;;6.50;;
16890;SDS011;8562;52.246;20.966;2022-08-19T00:27:29;7.03;;;6.03;;
16890;SDS011;8562;52.246;20.966;2022-08-19T00:29:55;7.93;;;6.10;;
16890;SDS011;8562;52.246;20.966;2022-08-19T00:32:21;11.23;;;6.20;;
16890;SDS011;8562;52.246;20.966;2022-08-19T00:34:48;10.40;;;7.00;;
16890;SDS011;8562;52.246;20.966;2022-08-19T00:37:14;8.57;;;6.23;;
16890;SDS011;8562;52.246;20.966;2022-08-19T00:39:40;8.30;;;6.47;;
16890;SDS011;8562;52.246;20.966;2022-08-19T00:42:06;8.17;;;6.50;;
16890;SDS011;8562;52.246;20.966;2022-08-19T00:44:32;8.43;;;6.20;;
16890;SDS011;8562;52.246;20.966;2022-08-19T00:46:58;7.90;;;5.97;;
16890;SDS011;8562;52.246;20.966;2022-08-19T00:49:30;7.73;;;6.13;;
16890;SDS011;8562;52.246;20.966;2022-08-19T00:52:05;5.93;;;5.33;;
16890;SDS011;8562;52.246;20.966;2022-08-19T00:54:32;8.07;;;6.00;;
16890;SDS011;8562;52.246;20.966;2022-08-19T00:56:58;11.30;;;6.40;;
16890;SDS011;8562;52.246;20.966;2022-08-19T00:59:25;7.60;;;5.57;;
16890;SDS011;8562;52.246;20.966;2022-08-19T01:01:53;7.57;;;6.73;;
16890;SDS011;8562;52.246;20.966;2022-08-19T01:04:19;6.57;;;5.43;;
16890;SDS011;8562;52.246;20.966;2022-08-19T01:06:45;9.37;;;6.17;;
16890;SDS011;8562;52.246;20.966;2022-08-19T01:09:11;9.70;;;5.80;;
16890;SDS011;8562;52.246;20.966;2022-08-19T01:11:39;7.60;;;5.30;;
16890;SDS011;8562;52.246;20.966;2022-08-19T01:14:06;7.63;;;5.83;;
16890;SDS011;8562;52.246;20.966;2022-08-19T01:16:33;8.17;;;5.47;;
16890;SDS011;8562;52.246;20.966;2022-08-19T01:19:00;6.27;;;5.67;;
16890;SDS011;8562;52.246;20.966;2022-08-19T01:21:34;7.67;;;5.57;;
16890;SDS011;8562;52.246;20.966;2022-08-19T01:24:02;9.63;;;5.50;;
16890;SDS011;8562;52.246;20.966;2022-08-19T01:26:28;6.93;;;6.13;;
16890;SDS011;8562;52.246;20.966;2022-08-19T01:28:56;7.63;;;5.30;;
16890;SDS011;8562;52.246;20.966;2022-08-19T01:31:24;11.63;;;5.87;;
16890;SDS011;8562;52.246;20.966;2022-08-19T01:33:51;7.73;;;6.37;;
16890;SDS011;8562;52.246;20.966;2022-08-19T01:36:25;7.60;;;5.37;;
16890;SDS011;8562;52.246;20.966;2022-08-19T01:38:52;7.03;;;6.13;;
16890;SDS011;8562;52.246;20.966;2022-08-19T01:41:18;8.37;;;6.13;;
16890;SDS011;8562;52.246;20.966;2022-08-19T01:43:45;8.60;;;5.80;;
16890;SDS011;8562;52.246;20.966;2022-08-19T01:46:11;7.27;;;6.10;;
16890;SDS011;8562;52.246;20.966;2022-08-19T01:48:39;8.10;;;6.27;;
16890;SDS011;8562;52.246;20.966;2022-08-19T01:51:06;7.33;;;6.13;;
16890;SDS011;8562;52.246;20.966;2022-08-19T01:53:32;10.10;;;6.23;;
16890;SDS011;8562;52.246;20.966;2022-08-19T01:55:59;8.67;;;6.43;;
16890;SDS011;8562;52.246;20.966;2022-08-19T01:58:27;7.23;;;6.00;;
16890;SDS011;8562;52.246;20.966;2022-08-19T02:00:56;9.40;;;6.90;;
16890;SDS011;8562;52.246;20.966;2022-08-19T02:03:23;9.37;;;6.83;;
16890;SDS011;8562;52.246;20.966;2022-08-19T02:05:53;7.57;;;6.50;;
16890;SDS011;8562;52.246;20.966;2022-08-19T02:08:19;9.27;;;6.97;;
16890;SDS011;8562;52.246;20.966;2022-08-19T02:10:45;7.73;;;6.53;;
16890;SDS011;8562;52.246;20.966;2022-08-19T02:13:11;8.23;;;7.20;;
16890;SDS011;8562;52.246;20.966;2022-08-19T02:15:38;8.87;;;7.30;;
16890;SDS011;8562;52.246;20.966;2022-08-19T02:18:04;8.67;;;6.73;;
16890;SDS011;8562;52.246;20.966;2022-08-19T02:20:31;8.20;;;6.90;;
16890;SDS011;8562;52.246;20.966;2022-08-19T02:22:57;10.27;;;7.03;;
16890;SDS011;8562;52.246;20.966;2022-08-19T02:25:23;8.37;;;6.87;;
16890;SDS011;8562;52.246;20.966;2022-08-19T02:27:49;8.57;;;6.80;;
16890;SDS011;8562;52.246;20.966;2022-08-19T02:30:16;9.50;;;7.93;;
16890;SDS011;8562;52.246;20.966;2022-08-19T02:32:42;7.87;;;6.50;;
16890;SDS011;8562;52.246;20.966;2022-08-19T02:35:09;11.63;;;6.83;;
16890;SDS011;8562;52.246;20.966;2022-08-19T02:37:35;10.37;;;7.77;;
16890;SDS011;8562;52.246;20.966;2022-08-19T02:40:20;9.00;;;7.07;;
16890;SDS011;8562;52.246;20.966;2022-08-19T02:42:46;11.17;;;6.97;;
16890;SDS011;8562;52.246;20.966;2022-08-19T02:45:13;8.57;;;7.43;;
16890;SDS011;8562;52.246;20.966;2022-08-19T02:47:39;7.73;;;6.93;;
16890;SDS011;8562;52.246;20.966;2022-08-19T02:50:05;9.10;;;7.13;;
16890;SDS011;8562;52.246;20.966;2022-08-19T02:52:32;10.70;;;7.87;;
16890;SDS011;8562;52.246;20.966;2022-08-19T02:54:59;10.40;;;6.87;;
16890;SDS011;8562;52.246;20.966;2022-08-19T02:57:26;11.93;;;6.90;;
16890;SDS011;8562;52.246;20.966;2022-08-19T02:59:52;9.13;;;6.77;;
16890;SDS011;8562;52.246;20.966;2022-08-19T03:02:19;12.13;;;7.53;;
16890;SDS011;8562;52.246;20.966;2022-08-19T03:04:45;8.83;;;6.73;;
16890;SDS011;8562;52.246;20.966;2022-08-19T03:07:15;10.23;;;7.77;;
16890;SDS011;8562;52.246;20.966;2022-08-19T03:09:41;7.67;;;6.87;;
16890;SDS011;8562;52.246;20.966;2022-08-19T03:12:08;9.40;;;7.17;;
16890;SDS011;8562;52.246;20.966;2022-08-19T03:14:34;8.57;;;7.07;;
16890;SDS011;8562;52.246;20.966;2022-08-19T03:17:00;8.67;;;6.90;;
16890;SDS011;8562;52.246;20.966;2022-08-19T03:19:28;10.57;;;6.83;;
16890;SDS011;8562;52.246;20.966;2022-08-19T03:21:54;7.83;;;6.73;;
16890;SDS011;8562;52.246;20.966;2022-08-19T03:24:20;11.23;;;7.30;;
16890;SDS011;8562;52.246;20.966;2022-08-19T03:26:54;7.40;;;6.70;;
16890;SDS011;8562;52.246;20.966;2022-08-19T03:29:23;7.73;;;6.60;;
16890;SDS011;8562;52.246;20.966;2022-08-19T03:31:49;8.47;;;6.83;;
16890;SDS011;8562;52.246;20.966;2022-08-19T03:34:19;8.73;;;6.13;;
16890;SDS011;8562;52.246;20.966;2022-08-19T03:36:45;11.17;;;7.50;;
16890;SDS011;8562;52.246;20.966;2022-08-19T03:39:12;9.80;;;6.73;;
16890;SDS011;8562;52.246;20.966;2022-08-19T03:41:39;7.67;;;6.53;;
16890;SDS011;8562;52.246;20.966;2022-08-19T03:44:06;10.07;;;7.40;;
16890;SDS011;8562;52.246;20.966;2022-08-19T03:46:33;10.63;;;6.90;;
16890;SDS011;8562;52.246;20.966;2022-08-19T03:49:00;7.87;;;6.70;;
16890;SDS011;8562;52.246;20.966;2022-08-19T03:51:30;10.70;;;7.60;;
16890;SDS011;8562;52.246;20.966;2022-08-19T03:53:57;9.83;;;7.03;;
16890;SDS011;8562;52.246;20.966;2022-08-19T03:56:24;9.73;;;7.00;;
16890;SDS011;8562;52.246;20.966;2022-08-19T03:58:51;11.07;;;7.33;;
16890;SDS011;8562;52.246;20.966;2022-08-19T04:01:19;9.00;;;6.67;;
16890;SDS011;8562;52.246;20.966;2022-08-19T04:03:46;11.30;;;7.77;;
16890;SDS011;8562;52.246;20.966;2022-08-19T04:06:22;8.87;;;6.93;;
16890;SDS011;8562;52.246;20.966;2022-08-19T04:08:50;9.03;;;6.87;;
16890;SDS011;8562;52.246;20.966;2022-08-19T04:11:18;8.90;;;7.40;;
16890;SDS011;8562;52.246;20.966;2022-08-19T04:13:46;9.73;;;7.13;;
16890;SDS011;8562;52.246;20.966;2022-08-19T04:16:13;8.77;;;7.27;;
16890;SDS011;8562;52.246;20.966;2022-08-19T04:18:39;8.40;;;6.93;;
16890;SDS011;8562;52.246;20.966;2022-08-19T04:21:06;10.40;;;7.57;;
16890;SDS011;8562;52.246;20.966;2022-08-19T04:23:33;9.33;;;7.37;;
16890;SDS011;8562;52.246;20.966;2022-08-19T04:26:01;8.00;;;6.53;;
16890;SDS011;8562;52.246;20.966;2022-08-19T04:28:27;7.60;;;6.30;;
16890;SDS011;8562;52.246;20.966;2022-08-19T04:30:54;7.97;;;7.07;;
16890;SDS011;8562;52.246;20.966;2022-08-19T04:33:22;9.30;;;7.13;;
16890;SDS011;8562;52.246;20.966;2022-08-19T04:35:49;9.57;;;7.13;;
16890;SDS011;8562;52.246;20.966;2022-08-19T04:38:17;9.63;;;6.97;;
16890;SDS011;8562;52.246;20.966;2022-08-19T04:40:45;7.53;;;6.63;;
16890;SDS011;8562;52.246;20.966;2022-08-19T04:43:31;8.43;;;7.10;;
16890;SDS011;8562;52.246;20.966;2022-08-19T04:45:57;8.63;;;7.10;;
16890;SDS011;8562;52.246;20.966;2022-08-19T04:48:24;11.13;;;7.30;;
16890;SDS011;8562;52.246;20.966;2022-08-19T04:50:53;8.93;;;6.53;;
16890;SDS011;8562;52.246;20.966;2022-08-19T04:53:30;9.57;;;6.17;;
16890;SDS011;8562;52.246;20.966;2022-08-19T04:55:57;7.83;;;7.13;;
16890;SDS011;8562;52.246;20.966;2022-08-19T04:58:23;8.00;;;7.20;;
16890;SDS011;8562;52.246;20.966;2022-08-19T05:00:50;8.97;;;7.07;;
16890;SDS011;8562;52.246;20.966;2022-08-19T05:03:16;6.37;;;5.80;;
16890;SDS011;8562;52.246;20.966;2022-08-19T05:05:46;7.60;;;6.87;;
16890;SDS011;8562;52.246;20.966;2022-08-19T05:08:17;8.90;;;6.60;;
16890;SDS011;8562;52.246;20.966;2022-08-19T05:10:47;6.20;;;5.60;;
16890;SDS011;8562;52.246;20.966;2022-08-19T05:13:14;6.93;;;6.23;;
16890;SDS011;8562;52.246;20.966;2022-08-19T05:15:41;9.97;;;7.23;;
16890;SDS011;8562;52.246;20.966;2022-08-19T05:18:07;12.77;;;6.17;;
16890;SDS011;8562;52.246;20.966;2022-08-19T05:20:52;8.60;;;6.87;;
16890;SDS011;8562;52.246;20.966;2022-08-19T05:23:37;9.50;;;6.80;;
16890;SDS011;8562;52.246;20.966;2022-08-19T05:26:03;9.80;;;6.87;;
16890;SDS011;8562;52.246;20.966;2022-08-19T05:28:30;8.40;;;6.03;;
16890;SDS011;8562;52.246;20.966;2022-08-19T05:30:56;8.60;;;6.80;;
16890;SDS011;8562;52.246;20.966;2022-08-19T05:33:22;12.93;;;6.77;;
16890;SDS011;8562;52.246;20.966;2022-08-19T05:35:49;9.73;;;6.97;;
16890;SDS011;8562;52.246;20.966;2022-08-19T05:38:16;8.00;;;6.27;;
16890;SDS011;8562;52.246;20.966;2022-08-19T05:40:43;10.53;;;6.87;;
16890;SDS011;8562;52.246;20.966;2022-08-19T05:43:13;11.43;;;6.60;;
16890;SDS011;8562;52.246;20.966;2022-08-19T05:45:41;8.43;;;5.77;;
16890;SDS011;8562;52.246;20.966;2022-08-19T05:48:08;8.90;;;5.87;;
16890;SDS011;8562;52.246;20.966;2022-08-19T05:50:36;8.50;;;6.50;;
16890;SDS011;8562;52.246;20.966;2022-08-19T05:53:03;8.53;;;6.30;;
16890;SDS011;8562;52.246;20.966;2022-08-19T05:55:29;7.10;;;5.97;;
16890;SDS011;8562;52.246;20.966;2022-08-19T05:57:55;7.63;;;6.47;;
16890;SDS011;8562;52.246;20.966;2022-08-19T06:00:21;8.13;;;5.67;;
16890;SDS011;8562;52.246;20.966;2022-08-19T06:02:48;8.97;;;6.80;;
16890;SDS011;8562;52.246;20.966;2022-08-19T06:05:14;7.73;;;6.50;;
16890;SDS011;8562;52.246;20.966;2022-08-19T06:07:40;7.00;;;5.80;;
16890;SDS011;8562;52.246;20.966;2022-08-19T06:10:07;8.90;;;6.10;;
16890;SDS011;8562;52.246;20.966;2022-08-19T06:12:34;11.27;;;6.17;;
16890;SDS011;8562;52.246;20.966;2022-08-19T06:15:02;6.57;;;5.33;;
16890;SDS011;8562;52.246;20.966;2022-08-19T06:17:29;7.33;;;6.50;;
16890;SDS011;8562;52.246;20.966;2022-08-19T06:19:55;8.27;;;6.00;;
16890;SDS011;8562;52.246;20.966;2022-08-19T06:22:23;7.37;;;5.80;;
16890;SDS011;8562;52.246;20.966;2022-08-19T06:24:49;8.03;;;6.13;;
16890;SDS011;8562;52.246;20.966;2022-08-19T06:27:18;9.40;;;5.87;;
16890;SDS011;8562;52.246;20.966;2022-08-19T06:29:44;5.60;;;5.10;;
16890;SDS011;8562;52.246;20.966;2022-08-19T06:32:11;8.50;;;5.93;;
16890;SDS011;8562;52.246;20.966;2022-08-19T06:34:38;9.73;;;6.00;;
16890;SDS011;8562;52.246;20.966;2022-08-19T06:37:04;8.47;;;6.23;;
16890;SDS011;8562;52.246;20.966;2022-08-19T06:39:32;11.33;;;5.53;;
16890;SDS011;8562;52.246;20.966;2022-08-19T06:41:59;7.43;;;5.50;;
16890;SDS011;8562;52.246;20.966;2022-08-19T06:44:29;8.77;;;5.57;;
16890;SDS011;8562;52.246;20.966;2022-08-19T06:47:00;7.40;;;5.87;;
16890;SDS011;8562;52.246;20.966;2022-08-19T06:49:27;7.50;;;5.67;;
16890;SDS011;8562;52.246;20.966;2022-08-19T06:51:55;9.63;;;5.40;;
16890;SDS011;8562;52.246;20.966;2022-08-19T06:54:23;8.37;;;5.30;;
16890;SDS011;8562;52.246;20.966;2022-08-19T06:56:51;6.20;;;5.53;;
16890;SDS011;8562;52.246;20.966;2022-08-19T06:59:18;6.47;;;5.27;;
16890;SDS011;8562;52.246;20.966;2022-08-19T07:01:55;8.03;;;4.97;;
16890;SDS011;8562;52.246;20.966;2022-08-19T07:04:22;8.23;;;5.27;;
16890;SDS011;8562;52.246;20.966;2022-08-19T07:06:49;7.40;;;5.97;;
16890;SDS011;8562;52.246;20.966;2022-08-19T07:09:17;6.13;;;5.53;;
16890;SDS011;8562;52.246;20.966;2022-08-19T07:11:44;6.10;;;5.50;;
16890;SDS011;8562;52.246;20.966;2022-08-19T07:14:10;9.83;;;5.73;;
16890;SDS011;8562;52.246;20.966;2022-08-19T07:16:37;7.43;;;5.73;;
16890;SDS011;8562;52.246;20.966;2022-08-19T07:19:03;6.23;;;5.63;;
16890;SDS011;8562;52.246;20.966;2022-08-19T07:21:29;6.93;;;5.90;;
16890;SDS011;8562;52.246;20.966;2022-08-19T07:23:56;7.17;;;5.90;;
16890;SDS011;8562;52.246;20.966;2022-08-19T07:26:27;6.47;;;5.87;;
16890;SDS011;8562;52.246;20.966;2022-08-19T07:28:54;6.80;;;5.47;;
16890;SDS011;8562;52.246;20.966;2022-08-19T07:31:21;7.17;;;6.03;;
16890;SDS011;8562;52.246;20.966;2022-08-19T07:33:48;10.60;;;5.40;;
16890;SDS011;8562;52.246;20.966;2022-08-19T07:36:17;9.77;;;5.53;;
16890;SDS011;8562;52.246;20.966;2022-08-19T07:38:45;6.07;;;5.47;;
16890;SDS011;8562;52.246;20.966;2022-08-19T07:41:17;8.57;;;5.73;;
16890;SDS011;8562;52.246;20.966;2022-08-19T07:43:44;7.53;;;6.03;;
16890;SDS011;8562;52.246;20.966;2022-08-19T07:46:10;7.17;;;5.30;;
16890;SDS011;8562;52.246;20.966;2022-08-19T07:48:38;8.73;;;7.10;;
16890;SDS011;8562;52.246;20.966;2022-08-19T07:51:06;7.10;;;5.33;;
16890;SDS011;8562;52.246;20.966;2022-08-19T07:53:33;8.40;;;6.17;;
16890;SDS011;8562;52.246;20.966;2022-08-19T07:55:59;8.50;;;6.00;;
16890;SDS011;8562;52.246;20.966;2022-08-19T07:58:30;7.43;;;5.53;;
16890;SDS011;8562;52.246;20.966;2022-08-19T08:00:56;6.00;;;4.90;;
16890;SDS011;8562;52.246;20.966;2022-08-19T08:03:22;11.70;;;6.30;;
16890;SDS011;8562;52.246;20.966;2022-08-19T08:06:08;7.83;;;5.50;;
16890;SDS011;8562;52.246;20.966;2022-08-19T08:08:53;7.90;;;5.40;;
16890;SDS011;8562;52.246;20.966;2022-08-19T08:11:42;8.03;;;5.77;;
16890;SDS011;8562;52.246;20.966;2022-08-19T08:14:14;9.73;;;6.57;;
16890;SDS011;8562;52.246;20.966;2022-08-19T08:16:40;7.33;;;5.57;;
16890;SDS011;8562;52.246;20.966;2022-08-19T08:19:09;8.60;;;6.33;;
16890;SDS011;8562;52.246;20.966;2022-08-19T08:21:35;7.10;;;5.00;;
16890;SDS011;8562;52.246;20.966;2022-08-19T08:24:01;6.37;;;5.27;;
16890;SDS011;8562;52.246;20.966;2022-08-19T08:26:28;6.87;;;6.10;;
16890;SDS011;8562;52.246;20.966;2022-08-19T08:28:54;8.67;;;5.70;;
16890;SDS011;8562;52.246;20.966;2022-08-19T08:31:20;6.43;;;5.03;;
16890;SDS011;8562;52.246;20.966;2022-08-19T08:33:47;7.87;;;5.70;;
16890;SDS011;8562;52.246;20.966;2022-08-19T08:36:13;7.07;;;5.80;;
16890;SDS011;8562;52.246;20.966;2022-08-19T08:38:40;7.33;;;5.67;;
16890;SDS011;8562;52.246;20.966;2022-08-19T08:41:31;8.03;;;5.70;;
16890;SDS011;8562;52.246;20.966;2022-08-19T08:43:53;9.33;;;6.10;;
16890;SDS011;8562;52.246;20.966;2022-08-19T08:46:35;6.93;;;5.80;;
16890;SDS011;8562;52.246;20.966;2022-08-19T08:51:51;7.33;;;5.07;;
16890;SDS011;8562;52.246;20.966;2022-08-19T08:54:20;7.53;;;5.97;;
16890;SDS011;8562;52.246;20.966;2022-08-19T08:56:46;6.90;;;5.67;;
16890;SDS011;8562;52.246;20.966;2022-08-19T08:59:21;6.17;;;5.57;;
16890;SDS011;8562;52.246;20.966;2022-08-19T09:01:49;7.73;;;6.23;;
16890;SDS011;8562;52.246;20.966;2022-08-19T09:04:15;7.27;;;6.10;;
16890;SDS011;8562;52.246;20.966;2022-08-19T09:09:22;6.83;;;6.13;;
16890;SDS011;8562;52.246;20.966;2022-08-19T09:17:08;9.60;;;6.00;;
16890;SDS011;8562;52.246;20.966;2022-08-19T09:19:56;6.80;;;6.10;;
16890;SDS011;8562;52.246;20.966;2022-08-19T09:22:20;8.03;;;5.70;;
16890;SDS011;8562;52.246;20.966;2022-08-19T09:24:50;6.07;;;5.47;;
16890;SDS011;8562;52.246;20.966;2022-08-19T09:27:17;6.70;;;5.73;;
16890;SDS011;8562;52.246;20.966;2022-08-19T09:29:45;6.80;;;5.53;;
16890;SDS011;8562;52.246;20.966;2022-08-19T09:32:12;6.10;;;5.20;;
16890;SDS011;8562;52.246;20.966;2022-08-19T09:34:39;6.33;;;4.83;;
16890;SDS011;8562;52.246;20.966;2022-08-19T09:37:05;5.50;;;4.50;;
16890;SDS011;8562;52.246;20.966;2022-08-19T09:39:31;10.03;;;5.23;;
16890;SDS011;8562;52.246;20.966;2022-08-19T09:41:57;13.10;;;5.43;;
16890;SDS011;8562;52.246;20.966;2022-08-19T09:44:23;5.03;;;4.20;;
16890;SDS011;8562;52.246;20.966;2022-08-19T09:46:49;8.87;;;5.83;;
16890;SDS011;8562;52.246;20.966;2022-08-19T09:49:17;6.50;;;4.80;;
16890;SDS011;8562;52.246;20.966;2022-08-19T09:51:43;7.63;;;4.57;;
16890;SDS011;8562;52.246;20.966;2022-08-19T09:54:09;5.30;;;4.80;;
16890;SDS011;8562;52.246;20.966;2022-08-19T09:56:36;7.27;;;5.13;;
16890;SDS011;8562;52.246;20.966;2022-08-19T09:59:02;8.67;;;5.40;;
16890;SDS011;8562;52.246;20.966;2022-08-19T10:01:30;5.70;;;5.20;;
16890;SDS011;8562;52.246;20.966;2022-08-19T10:03:57;6.67;;;5.57;;
16890;SDS011;8562;52.246;20.966;2022-08-19T10:06:25;9.73;;;5.23;;
16890;SDS011;8562;52.246;20.966;2022-08-19T10:08:55;6.77;;;4.90;;
16890;SDS011;8562;52.246;20.966;2022-08-19T10:11:21;9.33;;;5.70;;
16890;SDS011;8562;52.246;20.966;2022-08-19T10:13:48;5.73;;;4.57;;
16890;SDS011;8562;52.246;20.966;2022-08-19T10:16:15;9.93;;;5.17;;
16890;SDS011;8562;52.246;20.966;2022-08-19T10:18:42;5.03;;;4.57;;
16890;SDS011;8562;52.246;20.966;2022-08-19T10:21:16;7.07;;;5.20;;
16890;SDS011;8562;52.246;20.966;2022-08-19T10:23:44;7.87;;;5.03;;
16890;SDS011;8562;52.246;20.966;2022-08-19T10:26:11;7.63;;;5.20;;
16890;SDS011;8562;52.246;20.966;2022-08-19T10:28:37;5.97;;;4.47;;
16890;SDS011;8562;52.246;20.966;2022-08-19T10:31:04;6.87;;;4.57;;
16890;SDS011;8562;52.246;20.966;2022-08-19T10:33:31;6.33;;;5.00;;
16890;SDS011;8562;52.246;20.966;2022-08-19T10:36:04;7.10;;;4.63;;
16890;SDS011;8562;52.246;20.966;2022-08-19T10:38:32;6.23;;;4.67;;
16890;SDS011;8562;52.246;20.966;2022-08-19T10:41:06;6.47;;;4.83;;
16890;SDS011;8562;52.246;20.966;2022-08-19T10:43:32;6.10;;;4.67;;
16890;SDS011;8562;52.246;20.966;2022-08-19T10:46:01;8.90;;;5.10;;
16890;SDS011;8562;52.246;20.966;2022-08-19T10:48:27;6.10;;;4.90;;
16890;SDS011;8562;52.246;20.966;2022-08-19T10:50:53;7.33;;;3.93;;
16890;SDS011;8562;52.246;20.966;2022-08-19T10:53:38;7.80;;;5.57;;
16890;SDS011;8562;52.246;20.966;2022-08-19T10:56:04;7.20;;;5.67;;
16890;SDS011;8562;52.246;20.966;2022-08-19T10:58:49;7.40;;;4.57;;
16890;SDS011;8562;52.246;20.966;2022-08-19T11:01:15;8.03;;;5.10;;
16890;SDS011;8562;52.246;20.966;2022-08-19T11:03:41;5.93;;;4.33;;
16890;SDS011;8562;52.246;20.966;2022-08-19T11:06:08;8.30;;;5.30;;
16890;SDS011;8562;52.246;20.966;2022-08-19T11:08:35;5.20;;;4.70;;
16890;SDS011;8562;52.246;20.966;2022-08-19T11:11:03;7.93;;;5.43;;
16890;SDS011;8562;52.246;20.966;2022-08-19T11:13:33;5.03;;;4.53;;
16890;SDS011;8562;52.246;20.966;2022-08-19T11:18:37;7.53;;;4.73;;
16890;SDS011;8562;52.246;20.966;2022-08-19T11:21:05;7.17;;;4.57;;
16890;SDS011;8562;52.246;20.966;2022-08-19T11:23:32;6.67;;;4.87;;
16890;SDS011;8562;52.246;20.966;2022-08-19T11:25:58;11.80;;;5.63;;
16890;SDS011;8562;52.246;20.966;2022-08-19T11:28:24;4.40;;;4.00;;
16890;SDS011;8562;52.246;20.966;2022-08-19T11:30:50;7.83;;;4.80;;
16890;SDS011;8562;52.246;20.966;2022-08-19T11:33:16;5.50;;;5.00;;
16890;SDS011;8562;52.246;20.966;2022-08-19T11:35:44;6.97;;;5.17;;
16890;SDS011;8562;52.246;20.966;2022-08-19T11:38:10;6.13;;;5.20;;
16890;SDS011;8562;52.246;20.966;2022-08-19T11:40:36;5.37;;;4.87;;
16890;SDS011;8562;52.246;20.966;2022-08-19T11:43:03;5.30;;;4.80;;
16890;SDS011;8562;52.246;20.966;2022-08-19T11:45:29;5.67;;;4.87;;
16890;SDS011;8562;52.246;20.966;2022-08-19T11:47:55;5.83;;;5.00;;
16890;SDS011;8562;52.246;20.966;2022-08-19T11:50:23;6.00;;;4.57;;
16890;SDS011;8562;52.246;20.966;2022-08-19T11:52:50;5.73;;;4.77;;
16890;SDS011;8562;52.246;20.966;2022-08-19T11:55:20;5.40;;;4.70;;
16890;SDS011;8562;52.246;20.966;2022-08-19T11:57:46;4.43;;;4.03;;
16890;SDS011;8562;52.246;20.966;2022-08-19T12:00:12;4.37;;;3.97;;
16890;SDS011;8562;52.246;20.966;2022-08-19T12:02:39;6.70;;;4.53;;
16890;SDS011;8562;52.246;20.966;2022-08-19T12:05:05;6.83;;;5.07;;
16890;SDS011;8562;52.246;20.966;2022-08-19T12:07:32;9.20;;;5.37;;
16890;SDS011;8562;52.246;20.966;2022-08-19T12:09:59;5.93;;;4.93;;
16890;SDS011;8562;52.246;20.966;2022-08-19T12:12:26;7.70;;;5.13;;
16890;SDS011;8562;52.246;20.966;2022-08-19T12:14:53;5.27;;;4.77;;
16890;SDS011;8562;52.246;20.966;2022-08-19T12:17:22;5.00;;;4.50;;
16890;SDS011;8562;52.246;20.966;2022-08-19T12:19:48;5.10;;;4.20;;
16890;SDS011;8562;52.246;20.966;2022-08-19T12:22:15;7.53;;;4.90;;
16890;SDS011;8562;52.246;20.966;2022-08-19T12:24:41;5.37;;;4.80;;
16890;SDS011;8562;52.246;20.966;2022-08-19T12:27:07;7.00;;;4.70;;
16890;SDS011;8562;52.246;20.966;2022-08-19T12:29:33;6.03;;;4.77;;
16890;SDS011;8562;52.246;20.966;2022-08-19T12:31:59;5.77;;;4.47;;
16890;SDS011;8562;52.246;20.966;2022-08-19T12:34:28;6.27;;;4.27;;
16890;SDS011;8562;52.246;20.966;2022-08-19T12:36:58;6.70;;;5.20;;
16890;SDS011;8562;52.246;20.966;2022-08-19T12:39:25;5.10;;;4.60;;
16890;SDS011;8562;52.246;20.966;2022-08-19T12:41:51;8.70;;;4.37;;
16890;SDS011;8562;52.246;20.966;2022-08-19T12:44:17;5.37;;;3.97;;
16890;SDS011;8562;52.246;20.966;2022-08-19T12:46:43;5.40;;;4.37;;
16890;SDS011;8562;52.246;20.966;2022-08-19T12:49:09;6.83;;;5.20;;
16890;SDS011;8562;52.246;20.966;2022-08-19T12:51:35;5.50;;;4.90;;
16890;SDS011;8562;52.246;20.966;2022-08-19T12:54:02;6.37;;;4.63;;
16890;SDS011;8562;52.246;20.966;2022-08-19T12:56:29;5.67;;;4.30;;
16890;SDS011;8562;52.246;20.966;2022-08-19T12:58:56;4.80;;;4.30;;
16890;SDS011;8562;52.246;20.966;2022-08-19T13:01:22;8.33;;;4.53;;
16890;SDS011;8562;52.246;20.966;2022-08-19T13:03:49;6.37;;;4.53;;
16890;SDS011;8562;52.246;20.966;2022-08-19T13:06:17;6.43;;;3.90;;
16890;SDS011;8562;52.246;20.966;2022-08-19T13:08:43;4.97;;;4.27;;
16890;SDS011;8562;52.246;20.966;2022-08-19T13:11:11;7.47;;;4.70;;
16890;SDS011;8562;52.246;20.966;2022-08-19T13:13:38;4.83;;;4.33;;
16890;SDS011;8562;52.246;20.966;2022-08-19T13:16:06;13.13;;;4.97;;
16890;SDS011;8562;52.246;20.966;2022-08-19T13:18:33;8.30;;;4.60;;
16890;SDS011;8562;52.246;20.966;2022-08-19T13:21:05;6.40;;;5.07;;
16890;SDS011;8562;52.246;20.966;2022-08-19T13:23:32;4.80;;;4.00;;
16890;SDS011;8562;52.246;20.966;2022-08-19T13:25:59;6.43;;;4.70;;
16890;SDS011;8562;52.246;20.966;2022-08-19T13:28:27;5.63;;;4.00;;
16890;SDS011;8562;52.246;20.966;2022-08-19T13:31:16;4.83;;;4.00;;
16890;SDS011;8562;52.246;20.966;2022-08-19T13:34:01;4.50;;;4.10;;
16890;SDS011;8562;52.246;20.966;2022-08-19T13:36:28;6.93;;;4.27;;
16890;SDS011;8562;52.246;20.966;2022-08-19T13:38:54;7.90;;;5.03;;
16890;SDS011;8562;52.246;20.966;2022-08-19T13:41:21;6.23;;;4.90;;
16890;SDS011;8562;52.246;20.966;2022-08-19T13:43:47;6.80;;;4.30;;
16890;SDS011;8562;52.246;20.966;2022-08-19T13:46:14;6.30;;;3.97;;
16890;SDS011;8562;52.246;20.966;2022-08-19T13:48:40;5.07;;;4.37;;
16890;SDS011;8562;52.246;20.966;2022-08-19T13:51:06;5.77;;;4.50;;
16890;SDS011;8562;52.246;20.966;2022-08-19T13:53:38;4.80;;;4.23;;
16890;SDS011;8562;52.246;20.966;2022-08-19T13:56:05;6.30;;;4.63;;
16890;SDS011;8562;52.246;20.966;2022-08-19T13:58:32;4.50;;;4.10;;
16890;SDS011;8562;52.246;20.966;2022-08-19T14:00:58;4.83;;;4.10;;
16890;SDS011;8562;52.246;20.966;2022-08-19T14:03:24;7.40;;;4.47;;
16890;SDS011;8562;52.246;20.966;2022-08-19T14:05:51;11.80;;;5.23;;
16890;SDS011;8562;52.246;20.966;2022-08-19T14:08:17;5.20;;;3.77;;
16890;SDS011;8562;52.246;20.966;2022-08-19T14:10:43;7.20;;;4.57;;
16890;SDS011;8562;52.246;20.966;2022-08-19T14:13:10;4.43;;;3.60;;
16890;SDS011;8562;52.246;20.966;2022-08-19T14:15:36;5.27;;;3.83;;
16890;SDS011;8562;52.246;20.966;2022-08-19T14:18:03;5.70;;;4.53;;
16890;SDS011;8562;52.246;20.966;2022-08-19T14:20:29;4.70;;;3.97;;
16890;SDS011;8562;52.246;20.966;2022-08-19T14:22:55;7.20;;;4.40;;
16890;SDS011;8562;52.246;20.966;2022-08-19T14:25:22;6.53;;;4.30;;
16890;SDS011;8562;52.246;20.966;2022-08-19T14:27:49;5.93;;;4.20;;
16890;SDS011;8562;52.246;20.966;2022-08-19T14:30:17;8.83;;;3.77;;
16890;SDS011;8562;52.246;20.966;2022-08-19T14:32:43;5.87;;;3.97;;
16890;SDS011;8562;52.246;20.966;2022-08-19T14:35:10;4.53;;;3.40;;
16890;SDS011;8562;52.246;20.966;2022-08-19T14:37:37;8.83;;;4.43;;
16890;SDS011;8562;52.246;20.966;2022-08-19T14:40:04;5.20;;;3.63;;
16890;SDS011;8562;52.246;20.966;2022-08-19T14:42:30;4.63;;;3.53;;
16890;SDS011;8562;52.246;20.966;2022-08-19T14:44:57;4.07;;;3.33;;
16890;SDS011;8562;52.246;20.966;2022-08-19T14:47:24;4.60;;;3.97;;
16890;SDS011;8562;52.246;20.966;2022-08-19T14:49:50;3.77;;;3.20;;
16890;SDS011;8562;52.246;20.966;2022-08-19T14:52:16;7.97;;;3.30;;
16890;SDS011;8562;52.246;20.966;2022-08-19T14:54:42;6.37;;;3.23;;
16890;SDS011;8562;52.246;20.966;2022-08-19T14:57:11;5.07;;;3.93;;
16890;SDS011;8562;52.246;20.966;2022-08-19T14:59:40;3.97;;;2.80;;
16890;SDS011;8562;52.246;20.966;2022-08-19T15:02:06;3.93;;;3.30;;